Tiempo atmosférico en la estación meteorológica de Granada Aeropuerto, Granada (567 m.)



Fecha
DESCASC
Temp. máxima en grados centígrados (hora)
DESCASC
Temp. mínima en grados centígrados (hora)
DESCASC
Temp. media en grados centígrados
DESCASC
Racha de viento máxima en m/sg (hora)
DESCASC
Velocidad máxima media en intervalos de 10 minutos(hora)
DESCASC
Precipitaciones diarias en mm
DESCASC
Precipitaciones de 00:00 a 06:00 en mm
DESCASC
Precipitaciones de 06:00 a 12:00 en mm
DESCASC
Precipitaciones de 12:00 a 18:00 en mm
DESCASC
Precipitaciones de 18:00 a 24:00 en mm
DESCASC
14-09-2019 27.3 (17:30) 15.9 (00:00) 21.6 10.28 (05:40) 6.94 (05:40) 39.6 5.9 33.3 0.4 0
08-09-2019 27.3 (14:10) 17.5 (00:00) 22.4 13.33 (16:50) 7.78 (17:00) 11.6 0 0 9.8 1.8
04-09-2019 34.6 (15:40) 18.8 (00:00) 26.7 15.28 (16:30) 10 (16:50) 10.8 0.5 0 9.5 0.8
13-09-2019 25.2 (16:20) 14.6 (00:00) 19.9 11.67 (03:30) 6.11 (03:30) 5.1 1.3 3.8 0 0
09-09-2019 28.5 (15:20) 13.5 (08:00) 21 12.5 (16:40) 6.67 (16:40) 2.9 0 0 2.9 0
12-09-2019 23.7 (16:10) 13.8 (00:00) 18.8 11.39 (18:50) 6.94 (18:50) 0.4 0.3 0.1 0 0
07-09-2019 30.9 (15:20) 16.3 (00:00) 23.6 15.28 (16:20) 8.33 (16:20) 0.2 0 0 0.2 0
20-09-2019 29.1 (15:20) 16.7 (00:00) 22.9 9.17 (16:50) 6.67 (16:20) 0 0 0 0 0
19-09-2019 31.1 (17:10) 13.9 (00:00) 22.5 9.72 (17:50) 6.11 (18:00) 0 0 0 0 0
18-09-2019 30.6 (17:00) 14.1 (00:00) 22.4 8.33 (20:20) 5 (19:40) 0 0 0 0 0
17-09-2019 28.8 (16:30) 18.1 (00:00) 23.4 7.22 (15:00) 4.17 (15:00) 0 0 0 0 0
16-09-2019 30 (17:30) 15.9 (00:00) 22.9 6.11 (15:20) 3.61 (17:00) 0 0 0 0 0
15-09-2019 29.6 (16:00) 17.1 (00:00) 23.4 8.33 (17:00) 5.28 (19:10) 0 0 0 0 0
23-08-2019 35.4 (17:20) 17.1 (00:00) 26.3 11.67 (20:30) 8.61 (20:30) 0 0 0 0 0
11-09-2019 23.4 (16:50) 11.5 (00:00) 17.4 11.67 (16:20) 6.11 (01:40) 0 0 0 0 0
10-09-2019 23.9 (17:40) 13.4 (07:30) 18.6 12.5 (14:40) 7.78 (16:50) 0 0 0 0 0
21-09-2019 27.1 (15:40) 15.9 (00:00) 21.5 7.22 (16:00) 4.72 (16:00) 0 0 0 0 0
06-09-2019 32.4 (17:10) 17.2 (00:00) 24.8 9.72 (17:50) 6.67 (17:50) 0 0 0 0 0
05-09-2019 34.1 (17:10) 15.2 (00:00) 24.6 10.28 (16:00) 6.39 (17:30) 0 0 0 0 0
03-09-2019 35 (16:10) 15.9 (00:00) 25.4 10.28 (18:20) 7.22 (17:50) 0 0 0 0 0
02-09-2019 35.9 (15:20) 16.5 (00:00) 26.2 10.83 (17:20) 7.5 (17:30) 0 0 0 0 0
01-09-2019 36.2 (16:40) 15.7 (00:00) 26 9.17 (19:20) 5 (18:30) 0 0 0 0 0
31-08-2019 34.9 (15:50) 16 (00:00) 25.5 9.72 (02:10) 7.22 (18:40) 0 0 0 0 0
30-08-2019 35.9 (16:50) 16.3 (00:00) 26.1 10.28 (18:20) 6.11 (18:30) 0 0 0 0 0
29-08-2019 35.4 (15:40) 17.6 (00:00) 26.5 12.5 (16:30) 8.33 (17:00) 0 0 0 0 0
28-08-2019 35.1 (17:50) 13.6 (00:00) 24.3 9.17 (19:30) 6.39 (19:10) 0 0 0 0 0
27-08-2019 31.3 (17:50) 17.1 (00:00) 24.2 10.28 (17:50) 5.56 (18:10) 0 0 0 0 0
26-08-2019 29.7 (18:20) 20.6 (00:00) 25.2 8.89 (19:50) 5.83 (20:00) 0 0 0 0 0
25-08-2019 34.5 (16:10) 17.3 (00:00) 25.9 12.5 (17:50) 8.89 (17:50) 0 0 0 0 0
24-08-2019 35.3 (16:50) 16.5 (00:00) 25.9 11.39 (19:00) 7.78 (18:20) 0 0 0 0 0

Gráficas

Temp. máximas Temp. mínimas Temp. medias Precipitaciones Rachas de viento máximas Velocidades máximas media en intervalos de 10 minutos

Datos horarios

Fecha y hora oficial Temperatura (ºC) Velocidad del viento (km/h) Dirección del viento Racha (km/h) Dirección de racha Precipitación (mm) Presión (hPa) Tendencia (hPa) Humedad (%)
2019-09-21 23:00:00 20.9 5 Sudoeste 18 Oeste 0 950.1 1.9 75
2019-09-21 22:00:00 21.4 13 Oeste 22 Oeste 0 949.7 1.4 74
2019-09-21 21:00:00 22.2 13 Sudoeste 18 Oeste 0 948.7 0.3 62
2019-09-21 20:00:00 22.9 11 Sudoeste 18 Oeste 0 948.2 -0.5 60
2019-09-21 19:00:00 23.6 5 Oeste 22 Sudoeste 0 948.3 -0.2 59
2019-09-21 18:00:00 24.6 15 Oeste 22 Oeste 0 948.4 -0.3 51
2019-09-21 17:00:00 25 14 Sudoeste 22 Sudoeste 0 948.7 -0.6 50
2019-09-21 16:00:00 26.6 17 Oeste 26 Oeste 0 948.5 -1 50
2019-09-21 15:00:00 26.3 13 Oeste 21 Oeste 0 948.7 -1.3 50
2019-09-21 14:00:00 25 12 Noroeste 21 Noroeste 0 949.3 -0.5 61
2019-09-21 13:00:00 23.7 0 Calma 11 Noroeste 0 949.5 -0.1 69
2019-09-21 12:00:00 22.7 0 Calma 8 Noroeste 0 950 0.9 75
2019-09-21 11:00:00 20.9 0 Calma 4 Norte 0 949.8 1 80
2019-09-21 10:00:00 18.8 0 Calma 4 Oeste 0 949.6 0.7 90
2019-09-21 09:00:00 17.1 0 Calma 5 Sudoeste 0 949.1 0.4 97
2019-09-21 08:00:00 16.1 0 Calma 5 Sur 0 948.8 0.3 97
2019-09-21 07:00:00 16.2 2 Sur 5 Sudoeste 0 948.9 0.2 97
2019-09-21 06:00:00 16.1 0 Calma 8 Noroeste 0 948.7 -0.2 96
2019-09-21 05:00:00 17.3 6 Sur 8 Sur 0 948.5 -0.8 96
2019-09-21 04:00:00 17.5 0 Calma 8 Norte 0 948.7 -1.1 94
2019-09-21 03:00:00 17.8 2 Norte 8 Norte 0 948.9 -0.9 92
2019-09-21 02:00:00 18.4 4 Sudeste 13 Sur 0 949.3 -0.6 86
2019-09-21 01:00:00 18.6 0 Calma 8 Norte 0 949.8 -0.1 85
2019-09-21 00:00:00 19.8 0 Calma 11 Sur 0 949.8 0.7 79
2019-09-20 23:00:00 20.4 2 Norte 8 Oeste 0 949.9 1.4 76
2019-09-20 22:00:00 21.6 4 Sudoeste 26 Sudoeste 0 949.9 0.7 70
2019-09-20 21:00:00 21.8 11 Oeste 17 Oeste 0 949.1 0.6 70
2019-09-20 20:00:00 23.1 4 Sudoeste 24 Sudoeste 0 948.5 0.1 65
2019-09-20 19:00:00 24.1 18 Sudoeste 28 Sudoeste 0 949.2 0.6 61
2019-09-20 18:00:00 24.7 14 Oeste 30 Sudoeste 0 948.5 -0.5 60
2019-09-20 17:00:00 26 19 Sudoeste 33 Oeste 0 948.4 -1.1 54
2019-09-20 16:00:00 27.9 17 Oeste 28 Oeste 0 948.6 -1.6 49
2019-09-20 15:00:00 28.7 8 Sur 22 Sur 0 949 -1.5 43
2019-09-20 14:00:00 28.1 2 Norte 17 Sur 0 949.5 -1.3 50
2019-09-20 13:00:00 26 4 Sudoeste 18 Norte 0 950.2 -0.3 56
2019-09-20 12:00:00 24.6 7 Norte 17 Noroeste 0 950.5 0.6 62
2019-09-20 11:00:00 22.4 2 Norte 15 Este 0 950.8 1.2 69
2019-09-20 10:00:00 18.9 2 Oeste 8 Noroeste 0 950.5 0.7 84
2019-09-20 09:00:00 17.3 -- -- -- -- 0 949.9 -0.3 84
2019-09-20 08:00:00 16.9 6 Sudeste 13 Este 0 949.6 -0.9 82
2019-09-20 07:00:00 17.1 8 Este 13 Este 0 949.8 -1.2 81
2019-09-20 06:00:00 16.7 0 Calma 8 Norte 0 950.2 -1 86
2019-09-20 05:00:00 19.4 4 Sudeste 22 Sur 0 950.5 -0.8 81
2019-09-20 04:00:00 16.8 0 Calma 8 Oeste 0 951 0 80
2019-09-20 03:00:00 17.4 4 Oeste 8 Oeste 0 951.2 0.1 80
2019-09-20 02:00:00 17.8 0 Calma 4 Sudeste 0 951.3 0 80
2019-09-20 01:00:00 17.7 0 Calma 11 Noroeste 0 951 -0.1 78
2019-09-20 00:00:00 19 0 Calma 11 Sudoeste 0 951.1 0.8 72
2019-09-19 23:00:00 20.4 4 Sudeste 8 Sudeste 0 951.3 1.4 65
2019-09-19 22:00:00 21.8 3 Sudoeste 21 Sur 0 951.1 1.6 54
2019-09-19 21:00:00 23.1 2 Oeste 18 Sudoeste 0 950.3 1.1 44
2019-09-19 20:00:00 26.5 13 Sudoeste 22 Sudoeste 0 949.9 0.6 35
2019-09-19 19:00:00 29.5 18 Oeste 30 Oeste 0 949.5 -0.2 29
2019-09-19 18:00:00 30.1 22 Oeste 35 Oeste 0 949.2 -1.2 31
2019-09-19 17:00:00 30.7 16 Oeste 28 Oeste 0 949.3 -1.6 32
2019-09-19 16:00:00 30.1 11 Oeste 26 Noroeste 0 949.7 -1.8 36
2019-09-19 15:00:00 29.5 6 Noroeste 18 Oeste 0 950.4 -1.7 39
2019-09-19 14:00:00 28.2 0 Calma 9 Norte 0 950.9 -1.3 40
2019-09-19 13:00:00 25.9 3 Noroeste 8 Norte 0 951.5 -0.7 51
2019-09-19 12:00:00 24 0 Calma 8 Norte 0 952.1 0 59
2019-09-19 11:00:00 20.7 0 Calma 5 Nordeste 0 952.2 0.4 73
2019-09-19 10:00:00 18.1 0 Calma 5 Oeste 0 952.2 0.6 83
2019-09-19 09:00:00 14.8 0 Calma 4 Sudoeste 0 952.1 0.7 92
2019-09-19 08:00:00 14 0 Calma 8 Sudoeste 0 951.8 0.6 92
2019-09-19 07:00:00 14.4 0 Calma 4 Sur 0 951.6 0.3 92
2019-09-19 06:00:00 14.9 3 Sudoeste 8 Oeste 0 951.4 -0.3 92
2019-09-19 05:00:00 15.3 0 Calma 5 Sudoeste 0 951.2 -0.5 90
2019-09-19 04:00:00 15.8 0 Calma -- -- 0 951.3 -0.4 88
2019-09-19 03:00:00 16.6 0 Calma -- -- 0 951.7 0 86
2019-09-19 02:00:00 17.7 0 Calma 4 Sudoeste 0 951.7 0.1 80
2019-09-19 01:00:00 19.1 0 Calma 11 Sudoeste 0 951.7 0.5 75
2019-09-19 00:00:00 20.4 10 Sudoeste 17 Sudoeste 0 951.7 1.3 68
2019-09-18 23:00:00 21.1 8 Sudoeste 15 Sudoeste 0 951.6 1.6 66
2019-09-18 22:00:00 22.4 4 Oeste 13 Oeste 0 951.2 1.7 61
2019-09-18 21:00:00 24.2 13 Oeste 30 Oeste 0 950.4 1 55
2019-09-18 20:00:00 26.6 15 Oeste 26 Oeste 0 950 0.5 47
2019-09-18 19:00:00 29.1 17 Oeste 24 Oeste 0 949.5 -0.4 36
2019-09-18 18:00:00 30.2 13 Oeste 24 Oeste 0 949.4 -1.1 36
2019-09-18 17:00:00 30.4 9 Oeste 22 Oeste 0 949.5 -1.5 26
2019-09-18 16:00:00 29.8 12 Oeste 21 Oeste 0 949.9 -1.6 36
2019-09-18 15:00:00 28.4 4 Sudoeste 15 Sudoeste 0 950.5 -1.2 42
2019-09-18 14:00:00 27.5 0 Calma 13 Oeste 0 951 -0.8 46
2019-09-18 13:00:00 25.3 2 Noroeste 11 Noroeste 0 951.5 0 58
2019-09-18 12:00:00 22.7 0 Calma 5 Noroeste 0 951.7 0.5 69
2019-09-18 11:00:00 19.8 0 Calma 8 Noroeste 0 951.8 1 80
2019-09-18 10:00:00 17.4 3 Noroeste 8 Norte 0 951.5 0.8 89
2019-09-18 09:00:00 15.3 0 Calma 5 Sudoeste 0 951.2 0.8 94
2019-09-18 08:00:00 14.6 0 Calma 5 Sur 0 950.8 0.3 94
2019-09-18 07:00:00 14.5 4 Sudoeste 5 Oeste 0 950.7 0 94
2019-09-18 06:00:00 15.4 0 Calma 5 Sudoeste 0 950.4 -0.6 92
2019-09-18 05:00:00 15.9 0 Calma 5 Sur 0 950.5 -0.8 92
2019-09-18 04:00:00 16.2 3 Oeste 5 Oeste 0 950.7 -0.4 93
2019-09-18 03:00:00 17 0 Calma 8 Sur 0 951 0.1 90
2019-09-18 02:00:00 17.8 7 Sur 8 Sur 0 951.3 0.8 88
2019-09-18 01:00:00 18.1 0 Calma 8 Oeste 0 951.1 1 88
2019-09-18 00:00:00 19.9 3 Sudoeste 5 Sudoeste 0 950.9 1.4 81
2019-09-17 23:00:00 20.6 2 Sudoeste 18 Sur 0 950.5 1.2 78
2019-09-17 22:00:00 22.4 5 Sudoeste 15 Sudoeste 0 950.1 0.8 70
2019-09-17 21:00:00 23.3 11 Sudoeste 15 Sudoeste 0 949.5 -0.3 70
2019-09-15 18:00:00 29.1 17 Oeste 30 Noroeste 0 951.5 -0.9 40
2019-09-15 17:00:00 29.1 15 Oeste 30 Oeste 0 951.7 -1.2 44
2019-09-15 16:00:00 29.4 13 Oeste 28 Oeste 0 951.8 -1.5 41
2019-09-15 15:00:00 28.2 14 Oeste 26 Oeste 0 952.4 -1.2 51
2019-09-15 14:00:00 26.8 10 Oeste 21 Noroeste 0 952.9 -0.8 58
2019-09-15 13:00:00 25.7 6 Oeste 18 Oeste 0 953.3 -0.2 61
2019-09-15 12:00:00 24.1 0 Calma 11 Oeste 0 953.6 0.3 67
2019-09-15 11:00:00 21.8 0 Calma 8 Norte 0 953.7 0.5 77
2019-09-15 10:00:00 20.1 0 Calma 4 Norte 0 953.5 0.4 86
2019-09-15 09:00:00 17.8 0 Calma 11 Sudoeste 0 953.3 0.5 96
2019-09-15 08:00:00 17.3 4 Sur 8 Oeste 0 953.2 0 96
2019-09-15 07:00:00 17.7 4 Noroeste 8 Sur 0 953.1 -0.3 94
2019-09-15 06:00:00 18.6 3 Sudeste 8 Este 0 952.8 -0.6 90
2019-09-15 05:00:00 18.7 0 Calma 5 Este 0 953.2 -0.2 92
2019-09-15 04:00:00 18.8 0 Calma 5 Este 0 953.4 -0.2 92
2019-09-15 03:00:00 18.9 0 Calma 5 Sur 0 953.4 -0.4 92
2019-09-15 02:00:00 19.7 3 Sudeste 13 Nordeste 0 953.4 -0.3 87
2019-09-15 01:00:00 20.6 5 Nordeste 13 Nordeste 0 953.6 0.4 82
2019-09-15 00:00:00 21.2 2 Norte 18 Nordeste 0 953.8 1.5 79
2019-09-14 23:00:00 21.5 8 Norte 24 Norte 0 953.7 1.8 78
2019-09-14 22:00:00 22.3 14 Norte 26 Noroeste 0 953.2 1.6 76
2019-09-14 21:00:00 23.6 10 Norte 21 Nordeste 0 952.3 0.8 71
2019-09-14 20:00:00 24.4 6 Oeste 15 Oeste 0 951.9 0.1 67
2019-09-14 19:00:00 25.9 10 Oeste 21 Oeste 0 951.6 -0.5 64
2019-09-14 18:00:00 27.3 13 Oeste 21 Oeste 0 951.5 -1.4 58
2019-09-14 17:00:00 26.6 10 Sudoeste 18 Oeste 0 951.8 -2 59
2019-09-14 16:00:00 25.4 7 Oeste 17 Oeste 0 952.1 -2.7 64
2019-09-14 15:00:00 23.3 5 Oeste 13 Sudoeste 0 952.9 -2.2 73
2019-09-14 14:00:00 21.3 3 Oeste 15 Oeste 0 953.8 -1.2 81
2019-09-14 13:00:00 18.8 8 Oeste 18 Noroeste 0.4 954.8 0.6 92
2019-09-14 12:00:00 17.4 9 Sudoeste 13 Sudoeste 0.6 955.1 0.8 97
2019-09-14 11:00:00 16 0 Calma 32 Oeste 18.3 955 0.5 98
2019-09-14 10:00:00 16.9 5 Sur 11 Sudoeste 0 954.2 1.4 98
2019-09-14 09:00:00 16.5 8 Oeste 17 Sudoeste 1 954.3 1.2 98
2019-09-14 08:00:00 16.4 7 Sudeste 18 Sudeste 0.8 954.5 1.9 98
2019-09-14 07:00:00 16.1 6 Oeste 26 Oeste 12.6 952.8 -0.5 97
2019-09-14 06:00:00 16.3 6 Sur 37 Sudoeste 5.9 953.1 -0.7 94
2019-09-14 05:00:00 16.4 3 Sur 11 Sudeste 0 952.6 -1.4 92
2019-09-14 04:00:00 16.4 2 Noroeste 11 Sudoeste 0 953.3 -1.2 91
2019-09-14 03:00:00 16.9 0 Calma 11 Sudeste 0 953.8 -0.4 88
2019-09-14 02:00:00 17 7 Oeste 13 Noroeste 0 954 -0.5 87
2019-09-14 01:00:00 17.6 7 Sudoeste 17 Oeste 0 954.5 0.1 86
2019-09-14 00:00:00 18.7 0 Calma 5 Sur 0 954.2 0.5 81
2019-09-13 23:00:00 19.1 3 Sudoeste 17 Norte 0 954.5 0.9 79
2019-09-13 22:00:00 19.8 5 Norte 15 Norte 0 954.4 1.1 74
2019-09-13 21:00:00 20.7 5 Norte 18 Norte 0 953.7 1.1 67
2019-09-13 20:00:00 22.2 9 Norte 18 Norte 0 953.6 1 61
2019-09-13 19:00:00 24.4 8 Sur 17 Sudoeste 0 953.3 0.3 50
2019-09-13 18:00:00 24.7 5 Este 18 Norte 0 952.6 -1.4 46
2019-09-13 17:00:00 24.5 7 Nordeste 18 Norte 0 952.6 -1.5 47
2019-09-13 16:00:00 24.4 7 Norte 18 Nordeste 0 953 -1.6 50
2019-09-13 15:00:00 22.9 9 Este 21 Nordeste 0 954 -1 50
2019-09-13 14:00:00 22.8 6 Norte 21 Este 0 954.1 -0.7 58
2019-09-13 13:00:00 20.9 7 Norte 22 Nordeste 0 954.6 0.3 64
2019-09-13 12:00:00 18.6 9 Nordeste 17 Norte 0 955 0.8 75
2019-09-13 11:00:00 18.4 0 Calma 8 Sudoeste 0 954.8 1.5 71
2019-09-13 10:00:00 16.3 4 Sur 13 Nordeste 0 954.3 -1.7 87
2019-09-13 09:00:00 15.2 9 Nordeste 28 Norte 0 954.2 -0.7 85
2019-09-13 08:00:00 14.8 17 Norte 28 Nordeste 0.7 953.3 -1.2 90
2019-09-13 07:00:00 14.9 5 Este 15 Este 3.1 956 1.3 93
2019-09-13 06:00:00 14.7 4 Oeste 11 Oeste 1.1 954.9 -0.4 90
2019-09-13 05:00:00 15.8 4 Noroeste 24 Nordeste 0.1 954.5 -1.6 77
2019-09-13 04:00:00 16.5 17 Nordeste 42 Norte 0 954.7 -1.7 72
2019-09-13 03:00:00 16.1 6 Nordeste 22 Este 0.1 955.3 -1.2 86
2019-09-13 02:00:00 17 10 Nordeste 21 Nordeste 0 956.1 -0.7 77
2019-09-13 01:00:00 17.5 9 Nordeste 22 Este 0 956.4 -0.2 77
2019-09-13 00:00:00 17.3 0 Calma 21 Norte 0 956.5 0.6 83
2019-09-12 23:00:00 17.3 6 Norte 24 Nordeste 0 956.8 1.1 83
2019-09-12 22:00:00 17.7 8 Nordeste 24 Norte 0 956.6 0.9 80
2019-09-12 21:00:00 18 12 Nordeste 26 Nordeste 0 955.9 0.8 77
2019-09-12 20:00:00 18.5 16 Nordeste 37 Norte 0 955.7 0.7 76
2019-09-12 19:00:00 18.6 18 Nordeste 41 Nordeste 0 955.7 0.1 76
2019-09-12 18:00:00 22.3 20 Nordeste 35 Nordeste 0 955.1 -1.1 53
2019-09-12 17:00:00 22.8 16 Nordeste 32 Nordeste 0 955 -1.2 50
2019-09-12 16:00:00 22.9 3 Norte 18 Este 0 955.6 -0.7 48
2019-09-12 15:00:00 21.8 4 Este 18 Nordeste 0 956.2 -0.5 51
2019-09-12 14:00:00 21 5 Este 17 Este 0 956.2 -0.2 54
2019-09-12 13:00:00 20.2 4 Sudoeste 15 Sur 0 956.3 0.5 58
2019-09-12 12:00:00 18.6 0 Calma 15 Nordeste 0 956.7 1.5 64
2019-09-12 11:00:00 16.9 3 Este 11 Nordeste 0 956.4 2.1 71
2019-09-12 10:00:00 15.9 6 Este 21 Este 0 955.8 1.3 77
2019-09-12 09:00:00 15.2 9 Sudeste 24 Norte 0 955.2 1.3 78
2019-09-12 08:00:00 14.8 0 Calma 13 Norte 0 954.3 -0.5 77
2019-09-12 07:00:00 15 7 Nordeste 17 Este 0.1 954.5 -0.4 78
2019-09-12 06:00:00 14.1 8 Sudoeste 13 Este 0.3 953.9 -1.2 89
2019-09-12 05:00:00 16 8 Este 33 Nordeste 0 954.8 0 68
2019-09-12 04:00:00 15.3 10 Nordeste 32 Norte 0 954.9 -0.5 69
2019-09-12 03:00:00 15.5 14 Nordeste 37 Nordeste 0 955.1 0 68
2019-09-12 02:00:00 15.6 16 Nordeste 28 Nordeste 0 954.8 0 68
2019-09-12 01:00:00 15.9 15 Norte 24 Nordeste 0 955.4 1.5 69
2019-09-12 00:00:00 17.4 9 Nordeste 33 Este 0 955.1 1.9 58
2019-09-11 23:00:00 18.1 13 Este 22 Este 0 954.8 2.5 54
2019-09-11 22:00:00 18.7 5 Este 11 Este 0 953.9 2 53
2019-09-11 21:00:00 19.9 8 Sudeste 17 Este 0 953.2 1.3 49
2019-09-11 20:00:00 21.4 8 Este 24 Nordeste 0 952.3 0.3 43
2019-09-11 19:00:00 22.3 14 Nordeste 32 Nordeste 0 951.9 -0.8 40
2019-09-11 18:00:00 22.6 12 Nordeste 32 Norte 0 951.9 -0.9 39
2019-09-11 17:00:00 22.2 21 Norte 42 Nordeste 0 952 -1.1 40
2019-09-11 16:00:00 20.5 17 Nordeste 35 Este 0 952.7 -0.6 44
2019-09-11 15:00:00 20.2 12 Nordeste 37 Este 0 952.8 -0.3 45
2019-09-11 14:00:00 19.8 20 Nordeste 35 Norte 0 953.1 -0.1 46
2019-09-11 13:00:00 19.4 8 Nordeste 26 Este 0 953.3 0.2 46
2019-09-11 12:00:00 18.4 13 Norte 24 Nordeste 0 953.1 0.5 49
2019-09-11 11:00:00 17.2 7 Norte 22 Norte 0 953.2 0.9 50
2019-09-11 10:00:00 15.6 12 Nordeste 28 Nordeste 0 953.1 1.9 56
2019-09-11 09:00:00 13.4 12 Norte 18 Nordeste 0 952.6 1.4 67
2019-09-11 08:00:00 13.1 11 Nordeste 18 Nordeste 0 952.3 1.1 64
2019-09-11 07:00:00 11.9 11 Norte 15 Norte 0 951.2 0.2 70
2019-09-11 06:00:00 12.8 12 Norte 21 Norte 0 951.2 -0.8 66
2019-09-11 05:00:00 12.4 0 Calma 17 Norte 0 951.2 -0.6 67
2019-09-11 04:00:00 13.3 12 Norte 18 Nordeste 0 951 -0.3 65
2019-09-11 03:00:00 14.9 9 Nordeste 26 Nordeste 0 952 1.6 57
2019-09-11 02:00:00 16.1 12 Nordeste 41 Nordeste 0 951.8 1.5 50
2019-09-11 01:00:00 18.2 22 Nordeste 37 Este 0 951.3 1.5 38
2019-09-11 00:00:00 16.1 3 Norte 17 Nordeste 0 950.4 1.5 45
2019-09-10 23:00:00 16.8 3 Nordeste 18 Noroeste 0 950.3 1.9 42
2019-09-10 22:00:00 18.1 14 Noroeste 22 Norte 0 949.8 1.9 35
2019-09-10 21:00:00 19.2 14 Noroeste 26 Norte 0 948.9 1.1 33
2019-09-10 20:00:00 22.3 19 Norte 41 Norte 0 948.4 0.4 26
2019-09-10 19:00:00 23.4 23 Noroeste 35 Noroeste 0 947.9 -0.4 32
2019-09-10 18:00:00 23.4 25 Norte 39 Noroeste 0 947.8 -0.8 34
2019-09-10 17:00:00 23.3 24 Noroeste 42 Noroeste 0 948 -0.9 37
2019-09-10 16:00:00 21.8 20 Norte 45 Noroeste 0 948.3 -0.8 44
2019-09-10 15:00:00 22.2 24 Noroeste 45 Norte 0 948.6 -0.6 42
2019-09-10 14:00:00 21.8 23 Noroeste 42 Noroeste 0 948.9 -0.6 45
2019-09-10 13:00:00 20.6 19 Oeste 35 Oeste 0 949.1 -0.3 52
2019-09-10 12:00:00 19.5 22 Oeste 39 Oeste 0 949.2 0 53
2019-09-10 11:00:00 18.4 17 Oeste 32 Sudoeste 0 949.5 0.3 56
2019-09-10 10:00:00 17.9 10 Oeste 21 Oeste 0 949.4 0 64
2019-09-10 09:00:00 15.1 11 Sudoeste 24 Oeste 0 949.2 -0.4 75
2019-09-10 08:00:00 14.6 8 Sudoeste 15 Oeste 0 949.2 -1 78
2019-09-10 07:00:00 14.1 2 Oeste 11 Sur 0 949.4 -1.3 88
2019-09-10 06:00:00 15 7 Sur 13 Sur 0 949.6 -1.6 86
2019-09-10 05:00:00 16.3 5 Sudeste 8 Sudeste 0 950.2 -1.5 80
2019-09-10 04:00:00 18.3 3 Sudeste 15 Oeste 0 950.7 -1.3 72
2019-09-10 03:00:00 19.2 7 Sudoeste 21 Oeste 0 951.2 -0.9 68
2019-09-10 02:00:00 18.1 5 Sudoeste 15 Sudoeste 0 951.7 -0.3 81
2019-09-10 01:00:00 17.7 0 Calma 4 Sudoeste 0 952 0.3 92
2019-09-10 00:00:00 17.9 0 Calma 4 Noroeste 0 952.1 0.8 91
2019-09-09 23:00:00 19.1 0 Calma 11 Sudoeste 0 952 0.9 85
2019-09-09 22:00:00 19.9 4 Sur 13 Sudoeste 0 951.7 0.7 82
2019-09-09 21:00:00 21.2 2 Norte 5 Norte 0 951.3 0 75
2019-09-09 20:00:00 24.2 2 Este 13 Este 0 951.1 -0.4 58
2019-09-09 19:00:00 23.8 2 Nordeste 11 Nordeste 0 951 -0.7 59
2019-09-09 18:00:00 21.9 5 Noroeste 24 Sudoeste 0.9 951.3 -0.2 65
2019-09-09 17:00:00 21.8 4 Noroeste 45 Norte 2 951.5 -1 66
2019-09-09 16:00:00 25.7 19 Norte 35 Norte 0 951.7 -1.7 45
2019-09-09 15:00:00 28.1 12 Oeste 24 Oeste 0 951.5 -2.3 48
2019-09-09 14:00:00 26.2 5 Oeste 21 Sudoeste 0 952.5 -1.3 53
2019-09-09 13:00:00 24.2 3 Noroeste 11 Noroeste 0 953.4 -0.3 58
2019-09-09 12:00:00 21 0 Calma 8 Norte 0 953.8 0 73
2019-09-09 11:00:00 18.4 0 Calma 9 Norte 0 953.8 0.3 87
2019-09-09 10:00:00 17.6 0 Calma 8 Sur 0 953.7 0.5 90
2019-09-09 09:00:00 15 0 Calma 8 Oeste 0 953.8 0.6 98
2019-09-09 08:00:00 13.5 0 Calma 5 Sudeste 0 953.5 0.1 96
2019-09-09 07:00:00 14.3 3 Sur 5 Sur 0 953.2 -0.1 96
2019-09-09 06:00:00 15 3 Sudeste 8 Sur 0 953.2 -0.3 97
2019-09-09 05:00:00 15.4 0 Calma 5 Oeste 0 953.4 -0.1 97
2019-09-09 04:00:00 15.5 3 Sudoeste 5 Sur 0 953.3 -0.1 97
2019-09-09 03:00:00 15.9 0 Calma 4 Nordeste 0 953.5 -0.1 96
2019-09-09 02:00:00 16 0 Calma 8 Sudoeste 0 953.5 0 96
2019-09-09 01:00:00 16.5 4 Sudoeste 8 Sur 0 953.4 0.2 95
2019-09-09 00:00:00 17.6 4 Sur 8 Este 0 953.6 1 93
2019-09-08 23:00:00 17.9 4 Norte 15 Norte 0 953.5 1.3 93
2019-09-08 22:00:00 18 6 Sur 18 Sur 0 953.2 0.3 90
2019-09-08 21:00:00 18.5 8 Sur 13 Sudeste 0.2 952.6 0.2 93
2019-09-08 20:00:00 18.5 4 Noroeste 17 Este 0 952.2 -0.5 91
2019-09-08 19:00:00 17.9 14 Este 21 Este 1.6 952.9 2.2 90
2019-09-08 18:00:00 18.9 14 Sur 33 Este 9.1 952.4 1.5 83
2019-09-08 17:00:00 21.4 28 Sur 48 Sur 0.7 952.7 1.6 60
2019-09-08 16:00:00 25.8 21 Sudoeste 32 Sudoeste 0 950.7 -0.6 49
2019-09-08 15:00:00 26.4 12 Oeste 21 Oeste 0 950.9 -0.3 50
2019-09-08 14:00:00 27 7 Oeste 18 Norte 0 951.1 -0.4 49
2019-09-08 13:00:00 25.7 13 Sudoeste 21 Oeste 0 951.3 -0.2 54
2019-09-08 12:00:00 24.4 0 Calma 11 Sur 0 951.2 0 56
2019-09-08 11:00:00 21.7 0 Calma 5 Sur 0 951.5 0.2 65
2019-09-08 10:00:00 20.2 0 Calma 9 Sudoeste 0 951.5 0.2 72
2019-09-08 09:00:00 18.8 0 Calma 8 Nordeste 0 951.2 -0.1 79
2019-09-08 08:00:00 18.8 2 Norte 13 Norte 0 951.3 -0.3 76
2019-09-08 07:00:00 18.9 0 Calma 8 Este 0 951.3 -0.6 78
2019-09-08 06:00:00 19.2 3 Este 8 Este 0 951.3 -0.6 86
2019-09-08 05:00:00 18.9 4 Sur 8 Sur 0 951.6 0.3 90
2019-09-08 04:00:00 19.3 0 Calma 5 Sudeste 0 951.9 0 86
2019-09-08 03:00:00 19.4 2 Noroeste 11 Oeste 0 951.9 -0.2 88
2019-09-08 02:00:00 19.6 4 Sur 11 Sudoeste 0 951.3 -0.7 85
2019-09-08 01:00:00 19.9 0 Calma 11 Sudeste 0 951.9 0.8 84
2019-09-08 00:00:00 20.9 11 Sudeste 18 Sudeste 0 952.1 1.9 79
2019-09-07 23:00:00 21.3 6 Oeste 26 Sur 0 952 2.1 77
2019-09-07 22:00:00 22.7 17 Sur 30 Sur 0 951.1 1.3 73
2019-09-07 21:00:00 23.7 6 Sudeste 15 Sudeste 0 950.2 0.1 67
2019-09-07 20:00:00 25.2 3 Noroeste 17 Sur 0 949.9 -1 56
2019-09-07 19:00:00 25.8 9 Sur 17 Sudeste 0 949.8 -0.6 52
2019-09-07 18:00:00 24.2 6 Norte 22 Norte 0.1 950.1 -0.5 62
2019-09-07 17:00:00 23.1 10 Sudoeste 55 Nordeste 0.1 950.9 -0.3 66
2019-09-07 16:00:00 29.3 18 Sur 30 Sur 0 950.4 -1.1 44
2019-09-07 15:00:00 30 9 Sur 28 Sur 0 950.6 -1.4 38
2019-09-07 14:00:00 28.7 3 Norte 18 Norte 0 951.2 -1.1 41
2019-09-07 13:00:00 28 3 Este 17 Este 0 951.5 -1.1 44
2019-09-07 12:00:00 25.3 4 Norte 13 Norte 0 952 -0.2 55
2019-09-07 11:00:00 23.8 3 Norte 13 Nordeste 0 952.3 0.4 61
2019-09-07 10:00:00 21.9 2 Este 5 Este 0 952.6 1 68
2019-09-07 09:00:00 18.3 0 Calma 5 Sur 0 952.2 0.7 84
2019-09-07 08:00:00 16.8 0 Calma 5 Sur 0 951.9 0.1 85
2019-09-07 07:00:00 17.1 4 Sudoeste 8 Sudoeste 0 951.6 -0.3 86
2019-09-07 06:00:00 17.4 0 Calma 4 Sudoeste 0 951.5 -0.5 85
2019-09-07 05:00:00 18.6 0 Calma -- -- 0 951.8 -0.1 78
2019-09-07 04:00:00 19.1 0 Calma 5 Nordeste 0 951.9 0.4 77
2019-09-07 03:00:00 21.5 0 Calma 18 Sur 0 952 0.7 66
2019-09-07 02:00:00 21 4 Sur 13 Sur 0 951.9 0.6 70
2019-09-07 01:00:00 22.2 6 Noroeste 15 Sur 0 951.5 0.6 63
2019-09-07 00:00:00 23.9 3 Sudoeste 24 Sur 0 951.3 1.1 55
2019-09-06 23:00:00 24.1 0 Calma 17 Sur 0 951.3 1.6 60
2019-09-06 22:00:00 24.8 0 Calma 15 Oeste 0 950.9 1.4 54
2019-09-06 21:00:00 26.4 15 Sur 30 Sur 0 950.2 0.5 48
2019-09-06 20:00:00 28.1 21 Sur 30 Sudeste 0 949.7 0.1 47
2019-09-06 19:00:00 30.2 7 Oeste 24 Norte 0 949.5 -0.9 40
2019-09-06 18:00:00 29.5 18 Noroeste 35 Noroeste 0 949.7 -1.4 42
2019-09-06 17:00:00 32.1 10 Sudoeste 26 Oeste 0 949.6 -2 35
2019-09-06 16:00:00 32 13 Oeste 32 Sudoeste 0 950.4 -1.6 32
2019-09-06 15:00:00 31.3 16 Sudoeste 30 Oeste 0 951.1 -1.4 32
2019-09-06 14:00:00 31.1 8 Sur 21 Sudeste 0 951.6 -1.1 33
2019-09-06 13:00:00 28.4 4 Norte 21 Nordeste 0 952 -0.6 45
2019-09-06 12:00:00 26.1 3 Oeste 13 Sudoeste 0 952.5 -0.1 57
2019-09-06 11:00:00 23 5 Noroeste 13 Norte 0 952.7 0.3 74
2019-09-06 10:00:00 21.7 0 Calma 5 Este 0 952.6 0.6 79
2019-09-06 09:00:00 18.7 0 Calma 5 Sudoeste 0 952.6 0.7 94
2019-09-06 08:00:00 17.3 0 Calma 5 Norte 0 952.4 0.4 95
2019-09-06 07:00:00 17.9 3 Norte 8 Este 0 952 0 94
2019-09-06 06:00:00 19.2 5 Este 18 Sudeste 0 951.9 -0.2 89
2019-09-06 05:00:00 20.2 12 Sudeste 22 Sudeste 0 952 -0.4 87
2019-09-06 04:00:00 20.3 16 Sur 24 Sur 0 952 -0.4 89
2019-09-06 03:00:00 19.4 0 Calma 8 Sudeste 0 952.1 -0.3 88
2019-09-06 02:00:00 20.8 0 Calma 5 Oeste 0 952.4 0.4 84
2019-09-06 01:00:00 22.1 0 Calma 11 Oeste 0 952.4 1.1 77
2019-09-06 00:00:00 22.3 0 Calma 13 Sudeste 0 952.4 2.2 76
2019-09-05 23:00:00 23.1 8 Sur 28 Sur 0 952 2.2 73
2019-09-05 22:00:00 23.5 15 Sur 35 Sur 0 951.3 1.4 71
2019-09-05 21:00:00 24.2 20 Sur 33 Sur 0 950.2 0.7 68
2019-09-05 20:00:00 28.1 3 Sudeste 32 Sur 0 949.8 0.8 50
2019-09-05 19:00:00 28.4 16 Sur 33 Sur 0 949.9 0 51
2019-09-05 18:00:00 29.6 20 Sur 33 Oeste 0 949.5 -0.8 44
2019-09-05 17:00:00 33.9 3 Sudoeste 30 Nordeste 0 949 -2 25
2019-09-05 16:00:00 31.8 12 Nordeste 37 Nordeste 0 949.9 -1.6 29
2019-09-05 15:00:00 32.5 7 Sudoeste 18 Oeste 0 950.3 -1.5 31
2019-09-05 14:00:00 30.3 5 Oeste 15 Oeste 0 951 -0.9 41
2019-09-05 13:00:00 27.2 0 Calma 8 Noroeste 0 951.5 -0.4 56
2019-09-05 12:00:00 24.8 0 Calma 8 Norte 0 951.8 0 63
2019-09-05 11:00:00 22.6 0 Calma 8 Norte 0 951.9 0.2 69
2019-09-05 10:00:00 19.7 0 Calma 9 Noroeste 0 951.9 0.4 79
2019-09-05 09:00:00 16.9 2 Noroeste 8 Sudoeste 0 951.8 0.4 93
2019-09-05 08:00:00 15.4 0 Calma 4 Noroeste 0 951.7 0.3 95
2019-09-05 07:00:00 15.4 2 Sur 5 Sur 0 951.5 -0.1 93
2019-09-05 06:00:00 15.8 3 Sur 4 Sur 0 951.4 -0.4 94
2019-09-05 05:00:00 16.2 0 Calma 4 Sudoeste 0 951.4 -0.7 93
2019-09-05 04:00:00 16.7 0 Calma -- -- 0 951.6 -0.9 94
2019-09-05 03:00:00 17.1 0 Calma 4 Sur 0 951.8 -0.8 92
2019-09-05 02:00:00 17.7 0 Calma 5 Sur 0 952.1 -0.7 90
2019-09-05 01:00:00 18.8 0 Calma 4 Sur 0 952.5 -0.2 88
2019-09-05 00:00:00 19.7 0 Calma 11 Sudoeste 0 952.6 0.1 84
2019-09-04 23:00:00 20.6 0 Calma -- -- 0 952.8 0.4 91
2019-09-04 22:00:00 20.9 0 Calma 5 Oeste 0 952.7 0.4 89
2019-09-04 21:00:00 22.2 0 Calma 5 Este 0 952.5 -0.1 83
2019-09-04 20:00:00 22.8 6 Este 24 Noroeste 0 952.4 0.3 73
2019-09-04 19:00:00 21.9 19 Sur 35 Este 0.8 952.3 0.8 74
2019-09-04 18:00:00 24.4 21 Sudoeste 46 Oeste 0 952.6 0.2 56
2019-09-04 17:00:00 23.2 29 Sudoeste 55 Sudoeste 9.5 952.1 -1.1 71
2019-09-04 16:00:00 34.1 5 Oeste 24 Oeste 0 951.5 -2.4 28
2019-09-04 15:00:00 33 13 Oeste 22 Oeste 0 952.4 -2.3 33
2019-09-04 14:00:00 31.5 5 Oeste 17 Oeste 0 953.2 -1.7 38
2019-09-04 13:00:00 30.4 3 Oeste 17 Noroeste 0 953.9 -0.8 42
2019-09-04 12:00:00 26.9 0 Calma 11 Oeste 0 954.7 0.1 55
2019-09-04 11:00:00 24.1 0 Calma 8 Sudoeste 0 954.9 0.4 70
2019-09-04 10:00:00 19.9 0 Calma 8 Noroeste 0 954.7 0.6 92
2019-09-04 09:00:00 19 2 Sur 8 Sur 0 954.6 0.7 93
2019-09-04 08:00:00 18.9 0 Calma 4 Sur 0 954.5 0.5 93
2019-09-04 07:00:00 19.4 2 Sur 8 Sur 0 954.1 -0.3 93
2019-09-04 06:00:00 19.8 3 Sudoeste 5 Sudoeste 0 953.9 -0.8 93
2019-09-04 05:00:00 20.6 0 Calma 4 Sudoeste 0 954 -0.8 91
2019-09-04 04:00:00 21.5 4 Sudoeste 8 Oeste 0.5 954.4 -0.3 86
2019-09-04 03:00:00 22.5 2 Sudoeste 8 Este 0 954.7 -0.1 77
2019-09-04 02:00:00 23.2 5 Sudeste 22 Sudeste 0 954.8 0 75
2019-09-04 01:00:00 24 11 Sudeste 17 Sudeste 0 954.7 0.1 64
2019-09-04 00:00:00 23 3 Sudeste 5 Sudeste 0 954.8 1 53
2019-09-03 23:00:00 24.4 3 Sudoeste 8 Oeste 0 954.8 0.6 49
2019-09-03 22:00:00 24.2 3 Oeste 11 Sur 0 954.6 0.8 52
2019-09-03 21:00:00 26.7 8 Sur 28 Sur 0 953.8 0.8 44
2019-09-03 20:00:00 27.5 0 Calma 21 Sudoeste 0 954.2 1.3 42
2019-09-03 19:00:00 28.1 15 Sudoeste 37 Sudoeste 0 953.8 0.5 39
2019-09-03 18:00:00 32.1 24 Este 35 Este 0 953 -1 25
2019-09-03 17:00:00 34.5 14 Este 28 Sudeste 0 952.9 -1.7 25
2019-09-03 16:00:00 33.9 5 Oeste 18 Norte 0 953.3 -1.7 30
2019-09-03 15:00:00 33 8 Nordeste 18 Nordeste 0 954 -1.6 32
2019-09-03 14:00:00 32.4 4 Este 22 Norte 0 954.6 -1 34
2019-09-03 13:00:00 30.7 10 Norte 17 Norte 0 955 -0.4 40
2019-09-03 12:00:00 28.7 2 Norte 11 Norte 0 955.6 0.4 44
2019-09-03 11:00:00 25.2 4 Norte 11 Norte 0 955.6 0.9 52
2019-09-03 10:00:00 21.7 0 Calma 4 Noroeste 0 955.4 1.2 65
2019-09-03 09:00:00 18.7 0 Calma 4 Sudoeste 0 955.2 1.2 74
2019-09-03 08:00:00 16 0 Calma 4 Sudeste 0 954.7 0.8 80
2019-09-03 07:00:00 17.1 0 Calma 5 Sur 0 954.2 0.2 73
2019-09-03 06:00:00 17.3 2 Norte 11 Norte 0 954 0 74
2019-09-03 05:00:00 18 3 Oeste 13 Sur 0 953.9 0.1 71
2019-09-03 04:00:00 18.8 8 Sudoeste 11 Sudoeste 0 954 0.6 67
2019-09-03 03:00:00 19.1 0 Calma 8 Sudeste 0 954 0.7 66
2019-09-03 02:00:00 20 2 Sudoeste 5 Sudoeste 0 953.8 0.8 61
2019-09-03 01:00:00 20.1 3 Noroeste 8 Sur 0 953.4 0.7 61
2019-09-03 00:00:00 22.4 0 Calma 15 Sudoeste 0 953.3 1.3 56
2019-09-02 23:00:00 23.5 12 Sur 15 Sudoeste 0 953 1.8 57
2019-09-02 22:00:00 25.5 0 Calma 13 Noroeste 0 952.7 2.7 44
2019-09-02 21:00:00 27.2 4 Noroeste 13 Sudoeste 0 952 2.2 50
2019-09-02 20:00:00 29.6 10 Oeste 33 Sudoeste 0 951.2 1.3 45
2019-09-02 19:00:00 32.5 21 Sudoeste 39 Sudoeste 0 950 0 34
2019-09-02 18:00:00 33.7 26 Sudoeste 39 Sudoeste 0 949.8 -0.6 31
2019-09-02 17:00:00 34.7 22 Sudoeste 37 Sudoeste 0 949.9 -1 28
2019-09-02 16:00:00 35.5 22 Sudoeste 33 Sudoeste 0 950 -1.4 26
2019-09-02 15:00:00 34.7 6 Norte 21 Norte 0 950.4 -1.3 24
2019-09-02 14:00:00 33.9 3 Norte 13 Norte 0 950.9 -0.8 26
2019-09-02 13:00:00 31.7 4 Noroeste 13 Noroeste 0 951.4 -0.1 34
2019-09-02 12:00:00 29.1 3 Norte 8 Nordeste 0 951.7 0.4 38
2019-09-02 11:00:00 25.9 0 Calma 8 Norte 0 951.7 0.9 47
2019-09-02 10:00:00 22.3 0 Calma 8 Sur 0 951.5 1.2 57
2019-09-02 09:00:00 19.6 0 Calma 4 Este 0 951.3 1.4 61
2019-09-02 08:00:00 17.1 3 Sudoeste 8 Sudoeste 0 950.8 0.6 68
2019-09-02 07:00:00 17.3 9 Sudoeste 13 Sudoeste 0 950.3 0 64
2019-09-02 06:00:00 17.7 0 Calma -- -- 0 949.9 -0.3 62
2019-09-02 05:00:00 18.8 0 Calma 5 Sur 0 950.2 0 56
2019-09-02 04:00:00 19.4 0 Calma 5 Sudoeste 0 950.3 0.2 55
2019-09-02 03:00:00 20.2 6 Sur 8 Sur 0 950.2 0.1 52
2019-09-02 02:00:00 21.6 0 Calma 11 Sur 0 950.2 0.3 48
2019-09-02 01:00:00 22.3 6 Sur 11 Sur 0 950.1 0.7 46
2019-09-02 00:00:00 24.2 2 Noroeste 15 Noroeste 0 950.1 1.5 48
2019-09-01 23:00:00 26.1 5 Oeste 9 Oeste 0 949.9 1.4 42
2019-09-01 22:00:00 28.6 0 Calma 15 Sudeste 0 949.4 1.8 35
2019-09-01 21:00:00 30.3 10 Sudeste 21 Sudoeste 0 948.6 1 34
2019-09-01 20:00:00 32 15 Oeste 33 Sur 0 948.5 0.8 30
2019-09-01 19:00:00 34.4 16 Sur 26 Sur 0 947.6 -0.7 26
2019-09-01 18:00:00 34.9 14 Sur 26 Sur 0 947.6 -1.4 25
2019-09-01 17:00:00 36.1 10 Sudoeste 21 Oeste 0 947.7 -2.1 21
2019-09-01 16:00:00 35.2 3 Nordeste 17 Nordeste 0 948.3 -2.2 21
2019-09-01 15:00:00 34.7 3 Norte 15 Norte 0 949 -2.1 24
2019-09-01 14:00:00 32.9 2 Nordeste 13 Norte 0 949.8 -1.6 30
2019-09-01 13:00:00 31.1 2 Noroeste 11 Noroeste 0 950.5 -1 36
2019-09-01 12:00:00 28.2 0 Calma 8 Noroeste 0 951.1 -0.3 43
2019-09-01 11:00:00 25.1 0 Calma 17 Sudoeste 0 951.4 0.2 51
2019-09-01 10:00:00 21.2 0 Calma 5 Noroeste 0 951.5 0.8 63
2019-09-01 09:00:00 18.7 0 Calma 11 Sur 0 951.4 0.9 71
2019-09-01 08:00:00 15.7 0 Calma 8 Sudoeste 0 951.2 0.6 81
2019-09-01 07:00:00 16.2 4 Sur 5 Sur 0 950.7 -0.1 79
2019-09-01 06:00:00 16.7 3 Oeste 8 Sur 0 950.5 -0.5 78
2019-09-01 05:00:00 17.3 0 Calma 5 Sur 0 950.6 -0.6 74
2019-09-01 04:00:00 18 0 Calma 5 Sudoeste 0 950.8 -0.4 73
2019-09-01 03:00:00 18.7 2 Sudeste 8 Sudeste 0 951 -0.1 69
2019-09-01 02:00:00 19.6 0 Calma 5 Sudoeste 0 951.2 0.2 68
2019-09-01 01:00:00 20.3 3 Oeste 8 Oeste 0 951.2 0.7 68
2019-09-01 00:00:00 20.8 5 Oeste 8 Oeste 0 951.1 1 65
2019-08-31 23:00:00 22.8 4 Sudeste 8 Sudeste 0 951 1.3 55
2019-08-31 22:00:00 23.8 0 Calma 24 Norte 0 950.5 1.1 55
2019-08-31 21:00:00 26.6 0 Calma 11 Sur 0 950.1 1.1 47
2019-08-31 20:00:00 28.4 0 Calma 28 Sur 0 949.7 0.4 42
2019-08-31 19:00:00 29.9 21 Sur 35 Sur 0 949.4 -0.4 39
2019-08-31 18:00:00 30.1 19 Sudeste 33 Sudeste 0 949 -1.8 38
2019-08-31 17:00:00 32.7 12 Sudoeste 32 Oeste 0 949.3 -2.3 27
2019-08-31 16:00:00 33.6 7 Oeste 22 Oeste 0 949.8 -2.5 26
2019-08-31 15:00:00 33.4 7 Oeste 18 Noroeste 0 950.8 -2 28
2019-08-31 14:00:00 32.5 6 Noroeste 18 Noroeste 0 951.6 -1.2 29
2019-08-31 13:00:00 30.9 3 Oeste 21 Oeste 0 952.3 -0.4 34
2019-08-31 12:00:00 28.5 0 Calma 8 Norte 0 952.8 0.4 42
2019-08-31 11:00:00 25.8 2 Norte 8 Norte 0 952.8 0.6 50
2019-08-31 10:00:00 22.7 0 Calma 5 Este 0 952.7 0.9 57
2019-08-31 09:00:00 19 2 Sudoeste 9 Norte 0 952.4 0.6 66
2019-08-31 08:00:00 16.8 3 Sur 9 Sur 0 952.2 -0.1 72
2019-08-31 07:00:00 17.4 0 Calma 8 Sur 0 951.8 -0.6 73
2019-08-31 06:00:00 18.7 6 Sudeste 8 Sudeste 0 951.8 -1.5 64
2019-08-31 05:00:00 19.6 2 Noroeste 11 Sudoeste 0 952.3 -1.8 66
2019-08-31 04:00:00 21.5 6 Sudoeste 8 Sudoeste 0 952.4 -1.8 58
2019-08-31 03:00:00 23.5 0 Calma 35 Sudeste 0 953.3 0 52
2019-08-31 02:00:00 24.7 7 Este 21 Nordeste 0 954.1 0.8 47
2019-08-31 01:00:00 25.4 9 Este 24 Este 0 954.2 1.3 40
2019-08-31 00:00:00 23.3 3 Este 11 Este 0 953.3 1.1 46
2019-08-30 23:00:00 24 2 Norte 5 Norte 0 953.3 1.7 48
2019-08-30 22:00:00 26.2 0 Calma 11 Oeste 0 952.9 1.2 43
2019-08-30 21:00:00 28.9 4 Sudoeste 22 Sudeste 0 952.2 0.8 36
2019-08-30 20:00:00 32.3 3 Sudoeste 28 Sur 0 951.6 -0.1 32
2019-08-30 19:00:00 34 18 Sur 37 Sudeste 0 951.7 -0.8 27
2019-08-30 18:00:00 35.1 13 Sudoeste 30 Sur 0 951.4 -1.7 28
2019-08-30 17:00:00 35.8 15 Sur 35 Sur 0 951.7 -2.3 25
2019-08-30 16:00:00 35.1 19 Sudeste 33 Sudeste 0 952.5 -2.1 24
2019-08-30 15:00:00 34.2 9 Nordeste 26 Norte 0 953.1 -2 28
2019-08-30 14:00:00 33.1 5 Norte 13 Nordeste 0 954 -1.4 31
2019-08-30 13:00:00 30.8 3 Noroeste 11 Noroeste 0 954.6 -1 36
2019-08-30 12:00:00 28.4 2 Norte 11 Norte 0 955.1 -0.6 41
2019-08-30 11:00:00 25 0 Calma 8 Norte 0 955.4 -0.2 49
2019-08-30 10:00:00 21.7 0 Calma 5 Noroeste 0 955.6 0.6 59
2019-08-30 09:00:00 19.1 2 Noroeste 8 Sudoeste 0 955.7 0.9 65
2019-08-30 08:00:00 16.7 0 Calma 5 Oeste 0 955.6 0.9 68
2019-08-30 07:00:00 16.5 5 Sudoeste 8 Oeste 0 955 0 71
2019-08-30 06:00:00 17.4 4 Sudoeste 8 Sudoeste 0 954.8 -0.3 68
2019-08-30 05:00:00 17.2 2 Noroeste 4 Norte 0 954.7 -0.6 71
2019-08-30 04:00:00 18.4 0 Calma 4 Sur 0 955 -0.3 64
2019-08-30 03:00:00 19.1 0 Calma 4 Sur 0 955.1 -0.3 60
2019-08-30 02:00:00 20.1 0 Calma 2 Sudeste 0 955.3 0 59
2019-08-30 01:00:00 21.8 0 Calma 11 Este 0 955.3 0.6 52
2019-08-30 00:00:00 23.2 0 Calma 15 Oeste 0 955.4 1.6 45
2019-08-29 23:00:00 23.7 0 Calma 15 Norte 0 955.3 2.1 45
2019-08-29 22:00:00 26.8 5 Norte 17 Norte 0 954.7 1.8 37
2019-08-29 21:00:00 27.9 5 Norte 30 Sur 0 953.8 1.1 34
2019-08-29 20:00:00 30.2 22 Sur 39 Sur 0 953.2 0.4 27
2019-08-29 19:00:00 32.7 26 Sur 37 Sur 0 952.9 -0.1 25
2019-08-29 18:00:00 33.3 25 Sur 42 Sudeste 0 952.7 -0.7 26
2019-08-29 17:00:00 33.1 30 Sur 45 Sur 0 952.8 -0.8 29
2019-08-29 16:00:00 35 21 Sur 37 Sudeste 0 953 -1 24
2019-08-29 15:00:00 34.4 19 Sudeste 35 Sudeste 0 953.4 -0.8 24
2019-08-29 14:00:00 33.7 20 Sudeste 28 Sudeste 0 953.6 -0.6 25
2019-08-29 13:00:00 31.4 6 Noroeste 18 Noroeste 0 954 -0.1 32
2019-08-29 12:00:00 28.9 3 Norte 13 Nordeste 0 954.2 0.2 38
2019-08-29 11:00:00 26.1 0 Calma 11 Nordeste 0 954.2 0.6 44
2019-08-29 10:00:00 21.9 0 Calma 2 Noroeste 0 954.1 0.7 56
2019-08-29 09:00:00 19.9 0 Calma 5 Sudoeste 0 954 1 63
2019-08-29 08:00:00 18.6 0 Calma 8 Sudoeste 0 953.6 0.5 65
2019-08-29 07:00:00 18.3 0 Calma 5 Sudoeste 0 953.4 0.3 62
2019-08-29 06:00:00 18.5 0 Calma 5 Este 0 953 0.2 60
2019-08-29 05:00:00 19.5 0 Calma 13 Oeste 0 953.1 0.1 57
2019-08-29 04:00:00 21 0 Calma 5 Este 0 953.1 -0.1 54
2019-08-29 03:00:00 23 6 Este 17 Sudeste 0 952.8 -0.1 45
2019-08-29 02:00:00 22.6 0 Calma 8 Sudeste 0 953 0.7 47
2019-08-29 01:00:00 22.5 0 Calma 11 Norte 0 953.2 1.3 49
2019-08-29 00:00:00 24 3 Noroeste 11 Norte 0 952.9 1.9 41
2019-08-28 23:00:00 25 0 Calma 24 Sur 0 952.3 2.2 39
2019-08-28 22:00:00 26.7 8 Sur 21 Sudoeste 0 951.9 2 34
2019-08-28 21:00:00 28.3 15 Sudoeste 32 Sur 0 951 1 33
2019-08-28 20:00:00 31 19 Sur 33 Sur 0 950.1 -0.1 29
2019-08-28 19:00:00 33.5 19 Sur 30 Sudeste 0 949.9 -0.7 27
2019-08-28 18:00:00 34.8 4 Noroeste 15 Noroeste 0 950 -1.2 19
2019-08-28 17:00:00 34.2 4 Oeste 21 Sudoeste 0 950.2 -1.7 20
2019-08-28 16:00:00 34 8 Oeste 18 Oeste 0 950.6 -1.7 19
2019-08-28 15:00:00 32.6 5 Noroeste 18 Norte 0 951.2 -1.8 23
2019-08-28 14:00:00 31.6 5 Oeste 15 Oeste 0 951.9 -1.1 28
2019-08-28 13:00:00 29.6 2 Noroeste 9 Noroeste 0 952.3 -0.7 34
2019-08-28 12:00:00 27.1 0 Calma 8 Noroeste 0 953 0.1 39
2019-08-28 11:00:00 24.6 0 Calma 5 Norte 0 953 0.1 43
2019-08-28 10:00:00 20.7 0 Calma 5 Oeste 0 953 0.3 54
2019-08-28 09:00:00 17 2 Oeste 5 Sudoeste 0 952.9 0.5 61
2019-08-28 08:00:00 13.8 3 Sudoeste 5 Sudoeste 0 952.9 0.8 69
2019-08-28 07:00:00 14.7 0 Calma 4 Sur 0 952.7 0.5 63
2019-08-28 06:00:00 15.5 0 Calma 5 Sudoeste 0 952.4 0.1 64
2019-08-28 05:00:00 16.1 0 Calma 8 Sudoeste 0 952.1 -0.5 60
2019-08-28 04:00:00 17 7 Sudoeste 11 Sudoeste 0 952.2 -0.2 57
2019-08-28 03:00:00 17.4 5 Noroeste 13 Sudeste 0 952.3 0.1 63
2019-08-28 02:00:00 19.6 7 Sudeste 13 Sudeste 0 952.6 0.9 48
2019-08-28 01:00:00 20.3 5 Oeste 15 Sudoeste 0 952.4 1.6 45
2019-08-28 00:00:00 22.7 13 Sudoeste 15 Sudoeste 0 952.2 1.9 39
2019-08-27 23:00:00 23.2 8 Sudoeste 15 Oeste 0 951.7 2 41
2019-08-27 22:00:00 24.6 9 Oeste 18 Oeste 0 950.8 1.7 40
2019-08-27 21:00:00 26.1 10 Oeste 24 Oeste 0 950.3 1.3 40
2019-08-27 20:00:00 29 12 Noroeste 22 Noroeste 0 949.7 0.4 31
2019-08-27 19:00:00 30.2 17 Noroeste 35 Oeste 0 949.1 -0.7 28
2019-08-27 18:00:00 30.9 12 Oeste 37 Oeste 0 949 -1.2 30
2019-08-27 17:00:00 30.3 5 Norte 26 Oeste 0 949.3 -1.2 32
2019-08-27 16:00:00 29.9 13 Oeste 28 Oeste 0 949.8 -1.4 37
2019-08-27 15:00:00 29.9 5 Sudoeste 21 Norte 0 950.2 -1.3 35
2019-08-27 14:00:00 28.6 3 Noroeste 21 Oeste 0 950.5 -1 37
2019-08-27 13:00:00 28.5 0 Calma 11 Noroeste 0 951.2 0 36
2019-08-27 12:00:00 26 4 Norte 15 Norte 0 951.5 0.4 49
2019-08-27 11:00:00 24.3 0 Calma 9 Oeste 0 951.5 0.8 60
2019-08-27 10:00:00 21.9 3 Oeste 8 Oeste 0 951.2 0.9 71
2019-08-27 09:00:00 18.9 2 Sudoeste 8 Oeste 0 951.1 1 81
2019-08-27 08:00:00 17.5 4 Oeste 8 Oeste 0 950.7 0.6 84
2019-08-27 07:00:00 17.4 0 Calma 5 Sudoeste 0 950.3 0.4 84
2019-08-27 06:00:00 19.1 4 Sudoeste 11 Sudoeste 0 950.1 0 80
2019-08-27 05:00:00 19.1 6 Sudoeste 11 Sudoeste 0 950.1 -0.2 80
2019-08-27 04:00:00 18.7 2 Sudoeste 8 Sudoeste 0 949.9 -0.6 82
2019-08-27 03:00:00 19.4 0 Calma 13 Sur 0 950.1 -0.2 80
2019-08-27 02:00:00 20.7 10 Sur 18 Sudoeste 0 950.3 0.3 74
2019-08-27 01:00:00 21.1 7 Sudoeste 18 Oeste 0 950.5 0.6 72
2019-08-27 00:00:00 21.3 6 Noroeste 13 Sudeste 0 950.3 1.7 72
2019-08-26 23:00:00 23.5 4 Sur 18 Sudoeste 0 950 3 62
2019-08-26 22:00:00 24 6 Sur 26 Sur 0 949.9 2.9 61
2019-08-26 21:00:00 25.3 7 Oeste 32 Sur 0 948.6 1 58
2019-08-26 20:00:00 28.3 21 Sur 32 Sur 0 947 -0.9 51
2019-08-26 19:00:00 29.1 9 Oeste 24 Oeste 0 947 -1.5 48
2019-08-26 18:00:00 28.9 15 Noroeste 24 Oeste 0 947.6 -1.3 45
2019-08-26 17:00:00 29.1 6 Oeste 18 Sudoeste 0 947.9 -1.4 44
2019-08-26 16:00:00 29.2 2 Oeste 21 Oeste 0 948.5 -1 42
2019-08-26 15:00:00 28.1 8 Noroeste 18 Norte 0 948.9 -0.9 45
2019-08-26 14:00:00 27.6 4 Nordeste 17 Norte 0 949.3 -0.4 46
2019-08-26 13:00:00 26.7 3 Norte 15 Nordeste 0 949.5 0.2 49
2019-08-26 12:00:00 26.3 0 Calma 15 Norte 0 949.8 1 50
2019-08-26 11:00:00 25.7 5 Norte 17 Norte 0 949.7 1.4 56
2019-08-26 10:00:00 23.4 13 Norte 21 Norte 0 949.3 1.1 65
2019-08-26 09:00:00 21.7 3 Norte 13 Norte 0 948.8 0.9 75
2019-08-26 08:00:00 21.2 5 Este 8 Este 0 948.3 0.8 78
2019-08-26 07:00:00 21.3 0 Calma 17 Sudoeste 0 948.2 -0.2 78
2019-08-26 06:00:00 21.1 8 Oeste 13 Oeste 0 947.9 -1.7 81
2019-08-26 05:00:00 21 6 Norte 13 Norte 0 947.5 -1.9 82
2019-08-26 04:00:00 22.7 6 Sudeste 26 Sudeste 0 948.4 -2 71
2019-08-26 03:00:00 22.7 14 Sudeste 26 Sudeste 0 949.6 -0.3 73
2019-08-26 02:00:00 23 17 Sudeste 28 Sudeste 0 949.4 -0.4 72
2019-08-26 01:00:00 22.9 2 Sur 30 Sudeste 0 950.4 0.3 73
2019-08-26 00:00:00 22.9 11 Sur 45 Sudeste 0 949.9 0.6 75
2019-08-25 23:00:00 23.3 12 Sudoeste 33 Este 0 949.8 1.8 73
2019-08-25 22:00:00 24.3 3 Sudeste 30 Sur 0 950.1 2.5 60
2019-08-25 21:00:00 25.5 15 Sudoeste 35 Sur 0 949.3 1.3 58
2019-08-25 20:00:00 27.8 28 Sur 41 Sur 0 948 -0.4 55
2019-08-25 19:00:00 30.5 26 Sudeste 42 Sur 0 947.6 -1.1 45
2019-08-25 18:00:00 31.2 30 Sur 45 Sur 0 948 -1.3 41
2019-08-25 17:00:00 33.9 15 Sur 32 Sur 0 948.4 -1.6 33
2019-08-25 16:00:00 34 6 Sudoeste 26 Sur 0 948.7 -2.1 27
2019-08-25 15:00:00 33.1 9 Sudeste 28 Sudeste 0 949.3 -2.3 28
2019-08-25 14:00:00 32 9 Este 21 Sudeste 0 950 -1.9 31
2019-08-25 13:00:00 29 5 Norte 18 Norte 0 950.8 -1.5 46
2019-08-25 12:00:00 27.1 6 Norte 17 Nordeste 0 951.6 -0.6 52
2019-08-25 11:00:00 25.6 0 Calma 9 Sudeste 0 951.9 0 61
2019-08-25 10:00:00 22.4 0 Calma -- -- 0 952.3 0.8 72
2019-08-25 09:00:00 19.2 0 Calma -- -- 0 952.2 0.5 83
2019-08-25 08:00:00 17.5 0 Calma -- -- 0 951.9 0.2 88
2019-08-25 07:00:00 17.9 0 Calma -- -- 0 951.5 -0.5 85
2019-08-25 06:00:00 18.9 0 Calma -- -- 0 951.7 -0.4 84
2019-08-25 05:00:00 19.6 0 Calma -- -- 0 951.7 -0.7 80
2019-08-25 04:00:00 20.8 0 Calma 11 Este 0 952 -0.3 79
2019-08-25 03:00:00 22.1 8 Este 15 Sudeste 0 952.1 -0.4 75
2019-08-25 02:00:00 22.8 5 Este 13 Sudeste 0 952.4 0.2 73
2019-08-25 01:00:00 24.1 12 Sudoeste 30 Sur 0 952.3 1.1 65
2019-08-25 00:00:00 25.2 24 Sur 33 Sur 0 952.5 2.2 62
2019-08-24 23:00:00 25.8 6 Sudeste 24 Sudeste 0 952.2 2.3 59
2019-08-24 22:00:00 27 6 Sur 37 Sur 0 951.2 1.4 50
2019-08-24 21:00:00 28.5 18 Sur 39 Sudeste 0 950.3 0.3 47
2019-08-24 20:00:00 31.1 22 Sur 37 Sudeste 0 949.9 -0.3 39
2019-08-24 19:00:00 32.8 26 Sur 41 Sudeste 0 949.8 -1 34
2019-08-24 18:00:00 34 26 Sur 39 Sur 0 950 -1.5 32
2019-08-24 17:00:00 35.1 21 Sudeste 35 Sudeste 0 950.2 -1.9 28
2019-08-24 16:00:00 34.8 3 Nordeste 17 Norte 0 950.8 -2 24
2019-08-24 15:00:00 33 6 Norte 17 Norte 0 951.5 -1.7 27
2019-08-24 14:00:00 31.6 6 Norte 15 Norte 0 952.1 -1.3 32
2019-08-24 13:00:00 30 5 Norte 15 Nordeste 0 952.8 -0.6 37
2019-08-24 12:00:00 27.7 5 Norte 13 Nordeste 0 953.2 0 43
2019-08-24 11:00:00 25.9 0 Calma 11 Este 0 953.4 0.6 46
2019-08-24 10:00:00 23.3 0 Calma 13 Nordeste 0 953.4 0.7 53
2019-08-24 09:00:00 19.7 2 Este 5 Nordeste 0 953.2 0.4 69
2019-08-24 08:00:00 16.9 0 Calma 4 Sur 0 952.8 -0.3 78
2019-08-24 07:00:00 16.9 0 Calma 8 Sudoeste 0 952.7 -0.6 80
2019-08-24 06:00:00 18.2 0 Calma 11 Nordeste 0 952.8 -0.4 79
2019-08-24 05:00:00 18.8 0 Calma 8 Nordeste 0 953.1 -0.1 82
2019-08-24 04:00:00 20.4 3 Este 18 Sudeste 0 953.3 0.4 71
2019-08-24 03:00:00 21.8 5 Este 18 Sudeste 0 953.2 0.2 65
2019-08-24 02:00:00 22.2 6 Este 15 Sudeste 0 953.2 0.7 69
2019-08-24 01:00:00 23 8 Sur 24 Sur 0 952.9 1.1 65
2019-08-24 00:00:00 23 2 Nordeste 15 Norte 0 953 2.4 57
2019-08-23 23:00:00 24.5 0 Calma 17 Sur 0 952.5 2.3 52
2019-08-23 22:00:00 26.4 19 Sur 41 Sur 0 951.8 1.5 48
2019-08-23 21:00:00 27 22 Sur 42 Sur 0 950.6 0.2 48
2019-08-23 20:00:00 30.5 24 Sur 35 Sur 0 950.2 -0.5 39
2019-08-23 19:00:00 33.1 24 Sur 33 Sur 0 950.3 -0.8 32
2019-08-23 18:00:00 34.5 18 Sudeste 30 Sudeste 0 950.4 -1.6 27
2019-08-23 17:00:00 35 11 Sur 24 Sudeste 0 950.7 -1.9 24
2019-08-23 16:00:00 34.5 9 Sur 26 Nordeste 0 951.1 -2.1 22
2019-08-23 15:00:00 32.6 5 Este 18 Norte 0 952 -1.8 26
2019-08-23 14:00:00 31.2 5 Nordeste 21 Nordeste 0 952.6 -1.5 28
2019-08-23 13:00:00 29.5 4 Este 17 Sudeste 0 953.2 -0.9 30
2019-08-23 12:00:00 27.8 4 Norte 15 Norte 0 953.8 0 32
2019-08-23 11:00:00 26.3 4 Este 13 Sudeste 0 954.1 0.7 37
2019-08-23 10:00:00 23.6 0 Calma 11 Sudeste 0 954.1 1.1 49
2019-08-23 09:00:00 20.8 5 Sudeste 13 Sudeste 0 953.8 1 58
2019-08-23 08:00:00 17.2 2 Sur 5 Sur 0 953.4 0.5 78
2019-08-23 07:00:00 18.3 0 Calma 8 Este 0 953 0.1 73
2019-08-23 06:00:00 19.6 0 Calma 8 Este 0 952.8 -0.3 70
2019-08-23 05:00:00 20 0 Calma 11 Sudeste 0 952.9 -0.2 75
2019-08-23 04:00:00 21.5 2 Este 8 Este 0 952.9 -0.2 75
2019-08-23 03:00:00 22.5 5 Este 13 Este 0 953.1 -0.1 72
2019-08-23 02:00:00 22.9 0 Calma 8 Sur 0 953.1 0.1 71
2019-08-23 01:00:00 23.8 0 Calma 17 Sudeste 0 953.1 0.9 67
2019-08-23 00:00:00 24.5 0 Calma 18 Sur 0 953.2 2.2 65